CSN6905 ZWWW-ZBAD
Flight info
| Callsign | CSN6905 |
|---|---|
| Flight time | 3h 8m |
| Altitude | 35100 |
| Route | VARMI W190 ADPET W188 LIKMI DCT DKO W64 ELAPU |
| Aircraft | B77W/H-SDE1E2E3FGHIJ2J3J4J5M1RWXY/LB1D1 |
Departure
| Time | 2026-04-22 08:07 |
|---|---|
| Airport | Ürümqi Tianshan International Airport (ZWWW) |
Arrival
| Time | 2026-04-22 11:15 |
|---|---|
| Airport | Beijing Daxing International Airport (ZBAD) |
| Time | Latitude | Longitude | Altitude | Speed | Heading |
|---|---|---|---|---|---|
| 2026-04-22 07:49 | 43.91969 | 87.47337 | 2147 ft | 0 kts | 161° |
| 2026-04-22 07:49 | 43.91970 | 87.47337 | 2146 ft | 2 kts | 161° |
| 2026-04-22 07:49 | 43.91987 | 87.47329 | 2146 ft | 2 kts | 161° |
| 2026-04-22 07:50 | 43.92001 | 87.47322 | 2146 ft | 2 kts | 161° |
| 2026-04-22 07:50 | 43.92015 | 87.47316 | 2146 ft | 2 kts | 161° |
| 2026-04-22 07:50 | 43.92029 | 87.47307 | 2146 ft | 2 kts | 136° |
| 2026-04-22 07:50 | 43.92038 | 87.47291 | 2146 ft | 2 kts | 110° |
| 2026-04-22 07:51 | 43.92041 | 87.47271 | 2146 ft | 2 kts | 87° |
| 2026-04-22 07:51 | 43.92038 | 87.47250 | 2146 ft | 2 kts | 69° |
| 2026-04-22 07:51 | 43.92032 | 87.47231 | 2146 ft | 2 kts | 71° |
| 2026-04-22 07:51 | 43.92028 | 87.47211 | 2146 ft | 2 kts | 74° |
| 2026-04-22 07:52 | 43.92024 | 87.47191 | 2146 ft | 2 kts | 74° |
| 2026-04-22 07:52 | 43.92020 | 87.47171 | 2146 ft | 2 kts | 73° |
| 2026-04-22 07:52 | 43.92017 | 87.47156 | 2146 ft | 0 kts | 73° |
| 2026-04-22 07:58 | 43.92018 | 87.47162 | 2146 ft | 2 kts | 73° |
| 2026-04-22 07:59 | 43.92027 | 87.47206 | 2146 ft | 7 kts | 73° |
| 2026-04-22 07:59 | 43.92049 | 87.47307 | 2146 ft | 12 kts | 73° |
| 2026-04-22 07:59 | 43.92073 | 87.47424 | 2146 ft | 13 kts | 73° |
| 2026-04-22 07:59 | 43.92102 | 87.47555 | 2146 ft | 15 kts | 73° |
| 2026-04-22 08:00 | 43.92144 | 87.47692 | 2146 ft | 15 kts | 24° |
| 2026-04-22 08:00 | 43.92254 | 87.47671 | 2146 ft | 17 kts | 344° |
| 2026-04-22 08:00 | 43.92328 | 87.47766 | 2146 ft | 17 kts | 73° |
| 2026-04-22 08:00 | 43.92364 | 87.47939 | 2145 ft | 19 kts | 73° |
| 2026-04-22 08:01 | 43.92404 | 87.48127 | 2145 ft | 21 kts | 73° |
| 2026-04-22 08:01 | 43.92448 | 87.48330 | 2145 ft | 22 kts | 73° |
| 2026-04-22 08:01 | 43.92494 | 87.48547 | 2145 ft | 24 kts | 73° |
| 2026-04-22 08:01 | 43.92543 | 87.48776 | 2145 ft | 25 kts | 75° |
| 2026-04-22 08:02 | 43.92585 | 87.48998 | 2145 ft | 22 kts | 73° |
| 2026-04-22 08:02 | 43.92627 | 87.49194 | 2145 ft | 20 kts | 72° |
| 2026-04-22 08:02 | 43.92667 | 87.49371 | 2145 ft | 17 kts | 68° |
| 2026-04-22 08:02 | 43.92719 | 87.49427 | 2145 ft | 6 kts | 347° |
| 2026-04-22 08:03 | 43.92732 | 87.49423 | 2145 ft | 0 kts | 342° |
| 2026-04-22 08:03 | 43.92735 | 87.49421 | 2145 ft | 2 kts | 342° |
| 2026-04-22 08:04 | 43.92775 | 87.49403 | 2145 ft | 9 kts | 342° |
| 2026-04-22 08:04 | 43.92830 | 87.49359 | 2145 ft | 7 kts | 286° |
| 2026-04-22 08:04 | 43.92826 | 87.49289 | 2145 ft | 7 kts | 254° |
| 2026-04-22 08:04 | 43.92824 | 87.49278 | 2145 ft | 0 kts | 254° |
| 2026-04-22 08:06 | 43.92816 | 87.49236 | 2145 ft | 22 kts | 254° |
| 2026-04-22 08:06 | 43.92702 | 87.48697 | 2145 ft | 93 kts | 253° |
| 2026-04-22 08:06 | 43.92457 | 87.47533 | 2146 ft | 156 kts | 253° |
| 2026-04-22 08:06 | 43.92122 | 87.45895 | 2320 ft | 193 kts | 256° |
| 2026-04-22 08:07 | 43.91745 | 87.44119 | 2988 ft | 198 kts | 253° |
| 2026-04-22 08:07 | 43.91328 | 87.42281 | 3589 ft | 206 kts | 254° |
| 2026-04-22 08:07 | 43.90902 | 87.40288 | 3882 ft | 222 kts | 255° |
| 2026-04-22 08:07 | 43.90452 | 87.38168 | 4093 ft | 242 kts | 254° |
| 2026-04-22 08:08 | 43.89963 | 87.35877 | 4409 ft | 255 kts | 254° |
| 2026-04-22 08:08 | 43.89446 | 87.33467 | 4902 ft | 266 kts | 254° |
| 2026-04-22 08:08 | 43.88906 | 87.30965 | 5427 ft | 275 kts | 254° |
| 2026-04-22 08:08 | 43.88432 | 87.28407 | 6097 ft | 276 kts | 266° |
| 2026-04-22 08:09 | 43.88632 | 87.25823 | 6711 ft | 277 kts | 291° |
| 2026-04-22 08:09 | 43.89640 | 87.23576 | 7352 ft | 277 kts | 316° |
| 2026-04-22 08:09 | 43.91242 | 87.22150 | 7988 ft | 278 kts | 338° |
| 2026-04-22 08:09 | 43.93066 | 87.21300 | 8685 ft | 278 kts | 342° |
| 2026-04-22 08:10 | 43.94913 | 87.20544 | 9319 ft | 280 kts | 342° |
| 2026-04-22 08:10 | 43.96790 | 87.19776 | 9988 ft | 281 kts | 342° |
| 2026-04-22 08:10 | 43.98686 | 87.18992 | 10428 ft | 292 kts | 342° |
| 2026-04-22 08:10 | 44.00688 | 87.18159 | 10675 ft | 309 kts | 342° |
| 2026-04-22 08:11 | 44.02795 | 87.17282 | 10987 ft | 325 kts | 341° |
| 2026-04-22 08:11 | 44.05034 | 87.16374 | 11290 ft | 342 kts | 345° |
| 2026-04-22 08:11 | 44.07425 | 87.15853 | 11610 ft | 359 kts | 354° |
| 2026-04-22 08:11 | 44.09945 | 87.15932 | 12027 ft | 373 kts | 5° |
| 2026-04-22 08:12 | 44.12519 | 87.16712 | 12732 ft | 381 kts | 15° |
| 2026-04-22 08:12 | 44.14956 | 87.18174 | 13529 ft | 387 kts | 26° |
| 2026-04-22 08:12 | 44.17180 | 87.20285 | 14316 ft | 395 kts | 37° |
| 2026-04-22 08:12 | 44.19048 | 87.22907 | 15045 ft | 405 kts | 48° |
| 2026-04-22 08:13 | 44.20584 | 87.26128 | 15813 ft | 414 kts | 60° |
| 2026-04-22 08:13 | 44.21754 | 87.29786 | 16618 ft | 421 kts | 65° |
| 2026-04-22 08:13 | 44.22859 | 87.33543 | 17401 ft | 426 kts | 65° |
| 2026-04-22 08:13 | 44.24005 | 87.37401 | 18142 ft | 432 kts | 65° |
| 2026-04-22 08:14 | 44.25170 | 87.41283 | 18919 ft | 437 kts | 64° |
| 2026-04-22 08:14 | 44.26349 | 87.45186 | 19694 ft | 441 kts | 65° |
| 2026-04-22 08:14 | 44.27537 | 87.49107 | 20461 ft | 446 kts | 65° |
| 2026-04-22 08:14 | 44.28753 | 87.53108 | 21178 ft | 451 kts | 65° |
| 2026-04-22 08:15 | 44.29846 | 87.56700 | 21826 ft | 455 kts | 65° |
| 2026-04-22 08:15 | 44.31092 | 87.60798 | 22526 ft | 459 kts | 65° |
| 2026-04-22 08:15 | 44.32381 | 87.64835 | 23176 ft | 462 kts | 60° |
| 2026-04-22 08:15 | 44.34080 | 87.68645 | 23784 ft | 465 kts | 51° |
| 2026-04-22 08:16 | 44.36221 | 87.72045 | 24361 ft | 467 kts | 41° |
| 2026-04-22 08:16 | 44.38624 | 87.75146 | 24986 ft | 470 kts | 40° |
| 2026-04-22 08:16 | 44.41054 | 87.78212 | 25604 ft | 473 kts | 39° |
| 2026-04-22 08:16 | 44.43471 | 87.81267 | 26194 ft | 476 kts | 39° |
| 2026-04-22 08:17 | 44.45950 | 87.84406 | 26767 ft | 480 kts | 39° |
| 2026-04-22 08:17 | 44.48407 | 87.87527 | 27302 ft | 484 kts | 40° |
| 2026-04-22 08:17 | 44.50800 | 87.90836 | 27846 ft | 490 kts | 46° |
| 2026-04-22 08:17 | 44.52866 | 87.94687 | 28363 ft | 498 kts | 56° |
| 2026-04-22 08:18 | 44.54510 | 87.99004 | 28896 ft | 504 kts | 65° |
| 2026-04-22 08:18 | 44.55661 | 88.03586 | 29444 ft | 509 kts | 74° |
| 2026-04-22 08:18 | 44.56305 | 88.08477 | 30174 ft | 509 kts | 84° |
| 2026-04-22 08:18 | 44.56398 | 88.13360 | 30904 ft | 507 kts | 92° |
| 2026-04-22 08:19 | 44.56014 | 88.18274 | 31559 ft | 506 kts | 97° |
| 2026-04-22 08:19 | 44.55505 | 88.23126 | 32035 ft | 508 kts | 97° |
| 2026-04-22 08:19 | 44.55012 | 88.28015 | 32476 ft | 511 kts | 97° |
| 2026-04-22 08:19 | 44.54527 | 88.32961 | 32945 ft | 513 kts | 96° |
| 2026-04-22 08:20 | 44.54055 | 88.37857 | 33451 ft | 513 kts | 96° |
| 2026-04-22 08:20 | 44.53583 | 88.42812 | 33959 ft | 512 kts | 96° |
| 2026-04-22 08:20 | 44.53109 | 88.47832 | 34447 ft | 511 kts | 96° |
| 2026-04-22 08:20 | 44.52646 | 88.52779 | 34888 ft | 510 kts | 95° |
| 2026-04-22 08:21 | 44.52199 | 88.57768 | 35051 ft | 514 kts | 95° |
| 2026-04-22 08:21 | 44.51757 | 88.62750 | 35078 ft | 512 kts | 95° |
| 2026-04-22 08:21 | 44.50871 | 88.72696 | 35075 ft | 508 kts | 96° |
| 2026-04-22 08:22 | 44.49997 | 88.82452 | 35085 ft | 510 kts | 96° |
| 2026-04-22 08:22 | 44.49110 | 88.92263 | 35066 ft | 507 kts | 96° |
| 2026-04-22 08:23 | 44.48220 | 89.02024 | 35071 ft | 508 kts | 96° |
| 2026-04-22 08:23 | 44.47315 | 89.11809 | 35074 ft | 506 kts | 97° |
| 2026-04-22 08:24 | 44.46394 | 89.21540 | 35073 ft | 505 kts | 97° |
| 2026-04-22 08:24 | 44.45471 | 89.31203 | 35065 ft | 506 kts | 97° |
| 2026-04-22 08:25 | 44.44532 | 89.40945 | 35078 ft | 505 kts | 97° |
| 2026-04-22 08:25 | 44.43595 | 89.50594 | 35071 ft | 503 kts | 97° |
| 2026-04-22 08:26 | 44.42645 | 89.60285 | 35074 ft | 502 kts | 97° |
| 2026-04-22 08:26 | 44.41575 | 89.69855 | 35080 ft | 500 kts | 105° |
| 2026-04-22 08:27 | 44.39628 | 89.79206 | 35067 ft | 497 kts | 108° |
| 2026-04-22 08:27 | 44.37634 | 89.88393 | 35096 ft | 501 kts | 108° |
| 2026-04-22 08:28 | 44.35619 | 89.97648 | 35079 ft | 496 kts | 108° |
| 2026-04-22 08:28 | 44.33602 | 90.06870 | 35073 ft | 498 kts | 108° |
| 2026-04-22 08:29 | 44.31584 | 90.16060 | 35088 ft | 497 kts | 108° |
| 2026-04-22 08:29 | 44.29561 | 90.25235 | 35095 ft | 496 kts | 108° |
| 2026-04-22 08:30 | 44.27540 | 90.34360 | 35098 ft | 496 kts | 108° |
| 2026-04-22 08:30 | 44.25497 | 90.43548 | 35091 ft | 496 kts | 108° |
| 2026-04-22 08:31 | 44.23452 | 90.52705 | 35102 ft | 496 kts | 108° |
| 2026-04-22 08:32 | 44.20382 | 90.66376 | 35115 ft | 495 kts | 109° |
| 2026-04-22 08:32 | 44.18320 | 90.75514 | 35122 ft | 495 kts | 109° |
| 2026-04-22 08:33 | 44.16250 | 90.84646 | 35128 ft | 493 kts | 109° |
| 2026-04-22 08:33 | 44.14182 | 90.93729 | 35131 ft | 495 kts | 109° |
| 2026-04-22 08:34 | 44.12095 | 91.02860 | 35125 ft | 493 kts | 109° |
| 2026-04-22 08:34 | 44.10026 | 91.11880 | 35126 ft | 493 kts | 109° |
| 2026-04-22 08:35 | 44.07942 | 91.20933 | 35135 ft | 494 kts | 109° |
| 2026-04-22 08:35 | 44.05846 | 91.29997 | 35142 ft | 493 kts | 109° |
| 2026-04-22 08:36 | 44.03742 | 91.39061 | 35149 ft | 494 kts | 109° |
| 2026-04-22 08:36 | 44.01615 | 91.48144 | 35158 ft | 493 kts | 109° |
| 2026-04-22 08:37 | 43.99485 | 91.57149 | 35164 ft | 493 kts | 109° |
| 2026-04-22 08:37 | 43.97335 | 91.66202 | 35170 ft | 494 kts | 110° |
| 2026-04-22 08:38 | 43.95184 | 91.75230 | 35162 ft | 494 kts | 110° |
| 2026-04-22 08:38 | 43.93018 | 91.84282 | 35165 ft | 494 kts | 110° |
| 2026-04-22 08:39 | 43.90862 | 91.93255 | 35163 ft | 493 kts | 110° |
| 2026-04-22 08:39 | 43.88675 | 92.02325 | 35169 ft | 494 kts | 110° |
| 2026-04-22 08:40 | 43.86501 | 92.11304 | 35163 ft | 494 kts | 110° |
| 2026-04-22 08:40 | 43.84310 | 92.20316 | 35159 ft | 495 kts | 110° |
| 2026-04-22 08:41 | 43.82126 | 92.29265 | 35156 ft | 494 kts | 110° |
| 2026-04-22 08:41 | 43.79917 | 92.38279 | 35157 ft | 496 kts | 110° |
| 2026-04-22 08:42 | 43.77708 | 92.47260 | 35146 ft | 494 kts | 110° |
| 2026-04-22 08:42 | 43.75497 | 92.56212 | 35151 ft | 494 kts | 110° |
| 2026-04-22 08:43 | 43.73267 | 92.65208 | 35154 ft | 494 kts | 110° |
| 2026-04-22 08:43 | 43.71059 | 92.74080 | 35134 ft | 495 kts | 110° |
| 2026-04-22 08:44 | 43.68834 | 92.82989 | 35134 ft | 494 kts | 110° |
| 2026-04-22 08:44 | 43.66619 | 92.91818 | 35140 ft | 495 kts | 110° |
| 2026-04-22 08:45 | 43.64378 | 93.00751 | 35142 ft | 494 kts | 109° |
| 2026-04-22 08:45 | 43.62301 | 93.09468 | 35137 ft | 494 kts | 109° |
| 2026-04-22 08:46 | 43.60157 | 93.18453 | 35134 ft | 495 kts | 109° |
| 2026-04-22 08:46 | 43.57990 | 93.27486 | 35135 ft | 496 kts | 109° |
| 2026-04-22 08:47 | 43.55825 | 93.36462 | 35136 ft | 496 kts | 109° |
| 2026-04-22 08:47 | 43.53659 | 93.45403 | 35135 ft | 496 kts | 109° |
| 2026-04-22 08:48 | 43.51471 | 93.54397 | 35136 ft | 496 kts | 109° |
| 2026-04-22 08:48 | 43.49275 | 93.63388 | 35135 ft | 496 kts | 109° |
| 2026-04-22 08:49 | 43.47080 | 93.72340 | 35141 ft | 496 kts | 109° |
| 2026-04-22 08:49 | 43.44867 | 93.81327 | 35143 ft | 495 kts | 109° |
| 2026-04-22 08:50 | 43.42657 | 93.90266 | 35155 ft | 495 kts | 109° |
| 2026-04-22 08:50 | 43.40438 | 93.99210 | 35152 ft | 495 kts | 109° |
| 2026-04-22 08:51 | 43.38215 | 94.08133 | 35154 ft | 496 kts | 109° |
| 2026-04-22 08:51 | 43.35990 | 94.17031 | 35168 ft | 496 kts | 109° |
| 2026-04-22 08:52 | 43.33742 | 94.25988 | 35165 ft | 496 kts | 109° |
| 2026-04-22 08:52 | 43.31493 | 94.34912 | 35180 ft | 497 kts | 109° |
| 2026-04-22 08:53 | 43.29229 | 94.43863 | 35179 ft | 497 kts | 109° |
| 2026-04-22 08:53 | 43.26974 | 94.52741 | 35163 ft | 498 kts | 109° |
| 2026-04-22 08:54 | 43.24699 | 94.61667 | 35161 ft | 497 kts | 109° |
| 2026-04-22 08:54 | 43.22403 | 94.70641 | 35163 ft | 498 kts | 109° |
| 2026-04-22 08:55 | 43.20122 | 94.79522 | 35163 ft | 498 kts | 109° |
| 2026-04-22 08:55 | 43.17813 | 94.88478 | 35159 ft | 497 kts | 109° |
| 2026-04-22 08:56 | 43.15522 | 94.97332 | 35159 ft | 499 kts | 109° |
| 2026-04-22 08:56 | 43.12504 | 95.05808 | 35152 ft | 498 kts | 125° |
| 2026-04-22 08:57 | 43.07814 | 95.12665 | 35157 ft | 496 kts | 143° |
| 2026-04-22 08:57 | 43.02206 | 95.18153 | 35156 ft | 496 kts | 146° |
| 2026-04-22 08:58 | 42.96561 | 95.23487 | 35164 ft | 496 kts | 147° |
| 2026-04-22 08:58 | 42.90872 | 95.28812 | 35160 ft | 496 kts | 147° |
| 2026-04-22 08:59 | 42.85216 | 95.34076 | 35153 ft | 496 kts | 147° |
| 2026-04-22 08:59 | 42.79517 | 95.39358 | 35147 ft | 496 kts | 147° |
| 2026-04-22 09:00 | 42.73827 | 95.44614 | 35141 ft | 495 kts | 147° |
| 2026-04-22 09:00 | 42.69078 | 95.48987 | 35138 ft | 497 kts | 147° |
| 2026-04-22 09:01 | 42.62411 | 95.55112 | 35134 ft | 496 kts | 147° |
| 2026-04-22 09:01 | 42.56723 | 95.60324 | 35136 ft | 497 kts | 147° |
| 2026-04-22 09:02 | 42.50991 | 95.65564 | 35139 ft | 497 kts | 147° |
| 2026-04-22 09:02 | 42.45435 | 95.71169 | 35144 ft | 498 kts | 136° |
| 2026-04-22 09:03 | 42.41219 | 95.78530 | 35143 ft | 499 kts | 118° |
| 2026-04-22 09:03 | 42.38814 | 95.87174 | 35173 ft | 495 kts | 99° |
| 2026-04-22 09:04 | 42.38210 | 95.96375 | 35181 ft | 491 kts | 89° |
| 2026-04-22 09:04 | 42.37999 | 96.05630 | 35175 ft | 492 kts | 89° |
| 2026-04-22 09:05 | 42.37764 | 96.14827 | 35167 ft | 492 kts | 89° |
| 2026-04-22 09:05 | 42.37508 | 96.24030 | 35172 ft | 491 kts | 89° |
| 2026-04-22 09:06 | 42.37239 | 96.33228 | 35169 ft | 492 kts | 89° |
| 2026-04-22 09:06 | 42.36961 | 96.42384 | 35178 ft | 490 kts | 89° |
| 2026-04-22 09:07 | 42.36673 | 96.51550 | 35168 ft | 491 kts | 89° |
| 2026-04-22 09:07 | 42.36375 | 96.60732 | 35162 ft | 490 kts | 89° |
| 2026-04-22 09:08 | 42.36071 | 96.69906 | 35158 ft | 491 kts | 90° |
| 2026-04-22 09:08 | 42.35755 | 96.79178 | 35148 ft | 491 kts | 90° |
| 2026-04-22 09:09 | 42.35437 | 96.88309 | 35140 ft | 490 kts | 90° |
| 2026-04-22 09:09 | 42.35109 | 96.97502 | 35153 ft | 490 kts | 90° |
| 2026-04-22 09:10 | 42.34776 | 97.06631 | 35139 ft | 490 kts | 90° |
| 2026-04-22 09:10 | 42.34434 | 97.15812 | 35137 ft | 490 kts | 89° |
| 2026-04-22 09:11 | 42.34085 | 97.24964 | 35140 ft | 490 kts | 89° |
| 2026-04-22 09:11 | 42.33730 | 97.34098 | 35132 ft | 491 kts | 89° |
| 2026-04-22 09:12 | 42.33366 | 97.43281 | 35137 ft | 490 kts | 89° |
| 2026-04-22 09:12 | 42.32993 | 97.52486 | 35131 ft | 491 kts | 89° |
| 2026-04-22 09:13 | 42.32615 | 97.61637 | 35131 ft | 490 kts | 89° |
| 2026-04-22 09:13 | 42.32228 | 97.70842 | 35126 ft | 491 kts | 90° |
| 2026-04-22 09:14 | 42.31836 | 97.79984 | 35123 ft | 491 kts | 90° |
| 2026-04-22 09:14 | 42.31435 | 97.89154 | 35116 ft | 490 kts | 90° |
| 2026-04-22 09:15 | 42.31026 | 97.98347 | 35120 ft | 492 kts | 90° |
| 2026-04-22 09:15 | 42.30611 | 98.07519 | 35134 ft | 492 kts | 90° |
| 2026-04-22 09:16 | 42.30187 | 98.16695 | 35132 ft | 491 kts | 90° |
| 2026-04-22 09:16 | 42.29756 | 98.25887 | 35124 ft | 491 kts | 90° |
| 2026-04-22 09:17 | 42.29313 | 98.35063 | 35119 ft | 491 kts | 90° |
| 2026-04-22 09:17 | 42.28847 | 98.44186 | 35121 ft | 490 kts | 90° |
| 2026-04-22 09:18 | 42.28371 | 98.53351 | 35105 ft | 490 kts | 90° |
| 2026-04-22 09:18 | 42.27889 | 98.62497 | 35097 ft | 489 kts | 90° |
| 2026-04-22 09:19 | 42.27401 | 98.71648 | 35094 ft | 490 kts | 91° |
| 2026-04-22 09:19 | 42.26902 | 98.80847 | 35108 ft | 491 kts | 91° |
| 2026-04-22 09:20 | 42.26397 | 98.90012 | 35099 ft | 491 kts | 91° |
| 2026-04-22 09:20 | 42.25887 | 98.99150 | 35096 ft | 489 kts | 91° |
| 2026-04-22 09:21 | 42.25371 | 99.08264 | 35089 ft | 489 kts | 91° |
| 2026-04-22 09:21 | 42.24851 | 99.17326 | 35064 ft | 487 kts | 91° |
| 2026-04-22 09:22 | 42.24320 | 99.26447 | 35053 ft | 488 kts | 91° |
| 2026-04-22 09:22 | 42.23785 | 99.35512 | 35057 ft | 487 kts | 91° |
| 2026-04-22 09:23 | 42.23242 | 99.44596 | 35057 ft | 488 kts | 91° |
| 2026-04-22 09:23 | 42.22691 | 99.53681 | 35059 ft | 487 kts | 91° |
| 2026-04-22 09:24 | 42.22136 | 99.62723 | 35063 ft | 487 kts | 91° |
| 2026-04-22 09:24 | 42.21569 | 99.71844 | 35054 ft | 486 kts | 91° |
| 2026-04-22 09:25 | 42.21009 | 99.80737 | 35055 ft | 487 kts | 91° |
| 2026-04-22 09:25 | 42.20432 | 99.89764 | 35048 ft | 484 kts | 91° |
| 2026-04-22 09:26 | 42.19849 | 99.98813 | 35056 ft | 486 kts | 92° |
| 2026-04-22 09:26 | 42.19257 | 100.07855 | 35040 ft | 485 kts | 92° |
| 2026-04-22 09:27 | 42.18661 | 100.16871 | 35044 ft | 486 kts | 92° |
| 2026-04-22 09:27 | 42.18057 | 100.25890 | 35056 ft | 487 kts | 92° |
| 2026-04-22 09:28 | 42.17443 | 100.34943 | 35037 ft | 486 kts | 92° |
| 2026-04-22 09:28 | 42.16825 | 100.43954 | 35048 ft | 486 kts | 92° |
| 2026-04-22 09:29 | 42.16197 | 100.53014 | 35040 ft | 486 kts | 92° |
| 2026-04-22 09:29 | 42.15565 | 100.62017 | 35045 ft | 485 kts | 92° |
| 2026-04-22 09:30 | 42.14923 | 100.71066 | 35045 ft | 486 kts | 93° |
| 2026-04-22 09:30 | 42.14273 | 100.80125 | 35052 ft | 485 kts | 93° |
| 2026-04-22 09:31 | 42.13617 | 100.89168 | 35050 ft | 485 kts | 93° |
| 2026-04-22 09:31 | 42.12955 | 100.98189 | 35042 ft | 485 kts | 93° |
| 2026-04-22 09:32 | 42.11696 | 101.07130 | 35045 ft | 491 kts | 106° |
| 2026-04-22 09:32 | 42.09496 | 101.15752 | 35034 ft | 491 kts | 107° |
| 2026-04-22 09:33 | 42.07229 | 101.24449 | 35039 ft | 492 kts | 107° |
| 2026-04-22 09:33 | 42.04968 | 101.33073 | 35047 ft | 491 kts | 107° |
| 2026-04-22 09:34 | 42.02694 | 101.41702 | 35050 ft | 491 kts | 107° |
| 2026-04-22 09:34 | 42.00417 | 101.50306 | 35046 ft | 490 kts | 107° |
| 2026-04-22 09:35 | 41.96994 | 101.63182 | 35047 ft | 492 kts | 107° |
| 2026-04-22 09:35 | 41.94679 | 101.71845 | 35036 ft | 491 kts | 108° |
| 2026-04-22 09:36 | 41.92433 | 101.80222 | 35044 ft | 491 kts | 108° |
| 2026-04-22 09:36 | 41.90116 | 101.88837 | 35041 ft | 491 kts | 108° |
| 2026-04-22 09:37 | 41.87802 | 101.97411 | 35042 ft | 491 kts | 108° |
| 2026-04-22 09:37 | 41.85467 | 102.06028 | 35043 ft | 491 kts | 108° |
| 2026-04-22 09:38 | 41.83125 | 102.14646 | 35048 ft | 492 kts | 108° |
| 2026-04-22 09:38 | 41.80789 | 102.23207 | 35050 ft | 492 kts | 108° |
| 2026-04-22 09:39 | 41.78440 | 102.31789 | 35047 ft | 491 kts | 108° |
| 2026-04-22 09:39 | 41.76088 | 102.40353 | 35063 ft | 492 kts | 109° |
| 2026-04-22 09:40 | 41.73743 | 102.48859 | 35059 ft | 490 kts | 108° |
| 2026-04-22 09:40 | 41.71384 | 102.57389 | 35068 ft | 492 kts | 108° |
| 2026-04-22 09:41 | 41.69001 | 102.65976 | 35067 ft | 492 kts | 109° |
| 2026-04-22 09:41 | 41.66616 | 102.74541 | 35062 ft | 492 kts | 109° |
| 2026-04-22 09:42 | 41.64261 | 102.82976 | 35060 ft | 492 kts | 109° |
| 2026-04-22 09:42 | 41.61883 | 102.91466 | 35067 ft | 492 kts | 109° |
| 2026-04-22 09:43 | 41.59478 | 103.00022 | 35074 ft | 491 kts | 109° |
| 2026-04-22 09:43 | 41.57089 | 103.08484 | 35073 ft | 491 kts | 109° |
| 2026-04-22 09:44 | 41.54678 | 103.17000 | 35072 ft | 491 kts | 109° |
| 2026-04-22 09:44 | 41.52263 | 103.25497 | 35070 ft | 492 kts | 109° |
| 2026-04-22 09:45 | 41.49829 | 103.34035 | 35066 ft | 491 kts | 109° |
| 2026-04-22 09:45 | 41.47410 | 103.42491 | 35068 ft | 492 kts | 109° |
| 2026-04-22 09:46 | 41.44972 | 103.50985 | 35072 ft | 491 kts | 109° |
| 2026-04-22 09:46 | 41.42540 | 103.59428 | 35081 ft | 491 kts | 109° |
| 2026-04-22 09:47 | 41.40089 | 103.67915 | 35070 ft | 492 kts | 110° |
| 2026-04-22 09:47 | 41.37687 | 103.76200 | 35079 ft | 492 kts | 110° |
| 2026-04-22 09:48 | 41.35206 | 103.84733 | 35072 ft | 490 kts | 110° |
| 2026-04-22 09:48 | 41.32751 | 103.93146 | 35064 ft | 491 kts | 110° |
| 2026-04-22 09:49 | 41.30281 | 104.01585 | 35063 ft | 491 kts | 110° |
| 2026-04-22 09:49 | 41.27811 | 104.09997 | 35066 ft | 491 kts | 110° |
| 2026-04-22 09:50 | 41.25329 | 104.18421 | 35064 ft | 492 kts | 110° |
| 2026-04-22 09:50 | 41.22831 | 104.26875 | 35067 ft | 491 kts | 110° |
| 2026-04-22 09:51 | 41.20341 | 104.35270 | 35070 ft | 491 kts | 110° |
| 2026-04-22 09:51 | 41.17845 | 104.43663 | 35084 ft | 491 kts | 110° |
| 2026-04-22 09:52 | 41.15345 | 104.52040 | 35091 ft | 490 kts | 110° |
| 2026-04-22 09:52 | 41.12826 | 104.60452 | 35102 ft | 491 kts | 110° |
| 2026-04-22 09:53 | 41.10306 | 104.68845 | 35104 ft | 491 kts | 110° |
| 2026-04-22 09:53 | 41.07617 | 104.77151 | 35112 ft | 492 kts | 113° |
| 2026-04-22 09:54 | 41.04810 | 104.85398 | 35112 ft | 490 kts | 113° |
| 2026-04-22 09:54 | 41.02014 | 104.93626 | 35127 ft | 491 kts | 113° |
| 2026-04-22 09:55 | 40.99234 | 105.01798 | 35138 ft | 491 kts | 113° |
| 2026-04-22 09:55 | 40.96424 | 105.10046 | 35117 ft | 490 kts | 112° |
| 2026-04-22 09:56 | 40.93636 | 105.18214 | 35104 ft | 492 kts | 112° |
| 2026-04-22 09:56 | 40.90816 | 105.26452 | 35101 ft | 492 kts | 112° |
| 2026-04-22 09:57 | 40.88002 | 105.34650 | 35101 ft | 491 kts | 112° |
| 2026-04-22 09:57 | 40.85185 | 105.42837 | 35098 ft | 491 kts | 112° |
| 2026-04-22 09:58 | 40.82455 | 105.50745 | 35098 ft | 491 kts | 112° |
| 2026-04-22 09:58 | 40.79613 | 105.58958 | 35104 ft | 491 kts | 112° |
| 2026-04-22 09:59 | 40.76767 | 105.67155 | 35108 ft | 491 kts | 113° |
| 2026-04-22 09:59 | 40.73916 | 105.75347 | 35108 ft | 492 kts | 113° |
| 2026-04-22 10:00 | 40.71100 | 105.83411 | 35111 ft | 491 kts | 113° |
| 2026-04-22 10:00 | 40.68248 | 105.91558 | 35114 ft | 491 kts | 113° |
| 2026-04-22 10:01 | 40.65396 | 105.99682 | 35115 ft | 491 kts | 113° |
| 2026-04-22 10:01 | 40.62527 | 106.07829 | 35121 ft | 491 kts | 113° |
| 2026-04-22 10:02 | 40.59662 | 106.15942 | 35121 ft | 490 kts | 113° |
| 2026-04-22 10:02 | 40.56804 | 106.24014 | 35119 ft | 490 kts | 113° |
| 2026-04-22 10:03 | 40.53919 | 106.32137 | 35110 ft | 491 kts | 113° |
| 2026-04-22 10:03 | 40.51030 | 106.40252 | 35107 ft | 491 kts | 113° |
| 2026-04-22 10:04 | 40.48136 | 106.48352 | 35094 ft | 491 kts | 113° |
| 2026-04-22 10:04 | 40.45232 | 106.56463 | 35091 ft | 492 kts | 113° |
| 2026-04-22 10:05 | 40.42339 | 106.64517 | 35093 ft | 491 kts | 113° |
| 2026-04-22 10:05 | 40.39409 | 106.72652 | 35092 ft | 492 kts | 114° |
| 2026-04-22 10:06 | 40.36576 | 106.80496 | 35094 ft | 491 kts | 114° |
| 2026-04-22 10:06 | 40.33623 | 106.88650 | 35094 ft | 490 kts | 113° |
| 2026-04-22 10:07 | 40.31437 | 106.97001 | 35096 ft | 487 kts | 97° |
| 2026-04-22 10:07 | 40.31203 | 107.05724 | 35106 ft | 480 kts | 83° |
| 2026-04-22 10:08 | 40.31701 | 107.14414 | 35113 ft | 481 kts | 82° |
| 2026-04-22 10:08 | 40.32176 | 107.23120 | 35100 ft | 480 kts | 83° |
| 2026-04-22 10:09 | 40.32630 | 107.31833 | 35111 ft | 480 kts | 83° |
| 2026-04-22 10:09 | 40.33068 | 107.40525 | 35104 ft | 480 kts | 83° |
| 2026-04-22 10:10 | 40.33497 | 107.49257 | 35116 ft | 481 kts | 83° |
| 2026-04-22 10:10 | 40.33914 | 107.57945 | 35101 ft | 480 kts | 83° |
| 2026-04-22 10:11 | 40.34324 | 107.66631 | 35083 ft | 480 kts | 83° |
| 2026-04-22 10:11 | 40.34730 | 107.75401 | 35070 ft | 480 kts | 83° |
| 2026-04-22 10:12 | 40.35126 | 107.84084 | 35066 ft | 480 kts | 84° |
| 2026-04-22 10:12 | 40.35517 | 107.92818 | 35091 ft | 479 kts | 84° |
| 2026-04-22 10:13 | 40.35897 | 108.01471 | 35094 ft | 480 kts | 84° |
| 2026-04-22 10:13 | 40.36250 | 108.10172 | 35086 ft | 480 kts | 84° |
| 2026-04-22 10:14 | 40.36595 | 108.18907 | 35101 ft | 482 kts | 84° |
| 2026-04-22 10:14 | 40.36936 | 108.27660 | 35090 ft | 481 kts | 84° |
| 2026-04-22 10:15 | 40.37271 | 108.36421 | 35093 ft | 482 kts | 84° |
| 2026-04-22 10:15 | 40.37597 | 108.45119 | 35092 ft | 483 kts | 84° |
| 2026-04-22 10:16 | 40.37920 | 108.53896 | 35086 ft | 483 kts | 84° |
| 2026-04-22 10:16 | 40.38236 | 108.62699 | 35094 ft | 483 kts | 84° |
| 2026-04-22 10:17 | 40.38547 | 108.71537 | 35105 ft | 485 kts | 85° |
| 2026-04-22 10:17 | 40.38849 | 108.80290 | 35115 ft | 486 kts | 85° |
| 2026-04-22 10:18 | 40.39150 | 108.89216 | 35086 ft | 485 kts | 85° |
| 2026-04-22 10:18 | 40.39439 | 108.97987 | 35089 ft | 485 kts | 85° |
| 2026-04-22 10:19 | 40.39723 | 109.06819 | 35079 ft | 484 kts | 85° |
| 2026-04-22 10:19 | 40.39999 | 109.15596 | 35081 ft | 486 kts | 85° |
| 2026-04-22 10:20 | 40.40268 | 109.24387 | 35072 ft | 485 kts | 85° |
| 2026-04-22 10:20 | 40.40532 | 109.33220 | 35068 ft | 485 kts | 85° |
| 2026-04-22 10:21 | 40.40789 | 109.42028 | 35074 ft | 486 kts | 85° |
| 2026-04-22 10:21 | 40.41040 | 109.50867 | 35069 ft | 486 kts | 85° |
| 2026-04-22 10:22 | 40.41285 | 109.59741 | 35068 ft | 487 kts | 85° |
| 2026-04-22 10:22 | 40.41523 | 109.68617 | 35102 ft | 488 kts | 86° |
| 2026-04-22 10:23 | 40.41753 | 109.77456 | 35086 ft | 487 kts | 86° |
| 2026-04-22 10:23 | 40.41974 | 109.86173 | 35087 ft | 487 kts | 86° |
| 2026-04-22 10:24 | 40.42191 | 109.95001 | 35092 ft | 488 kts | 86° |
| 2026-04-22 10:24 | 40.42275 | 110.03889 | 35103 ft | 489 kts | 89° |
| 2026-04-22 10:25 | 40.42212 | 110.12782 | 35098 ft | 491 kts | 89° |
| 2026-04-22 10:25 | 40.42151 | 110.21708 | 35110 ft | 491 kts | 89° |
| 2026-04-22 10:26 | 40.42088 | 110.30637 | 35116 ft | 490 kts | 88° |
| 2026-04-22 10:26 | 40.42022 | 110.39550 | 35112 ft | 492 kts | 89° |
| 2026-04-22 10:27 | 40.41950 | 110.48523 | 35117 ft | 494 kts | 89° |
| 2026-04-22 10:27 | 40.41872 | 110.57451 | 35105 ft | 493 kts | 89° |
| 2026-04-22 10:28 | 40.41787 | 110.66440 | 35115 ft | 492 kts | 89° |
| 2026-04-22 10:28 | 40.41696 | 110.75390 | 35105 ft | 494 kts | 90° |
| 2026-04-22 10:29 | 40.41598 | 110.84425 | 35099 ft | 496 kts | 90° |
| 2026-04-22 10:29 | 40.41492 | 110.93442 | 35109 ft | 495 kts | 89° |
| 2026-04-22 10:30 | 40.41380 | 111.02508 | 35117 ft | 498 kts | 89° |
| 2026-04-22 10:30 | 40.41260 | 111.11498 | 35111 ft | 497 kts | 90° |
| 2026-04-22 10:31 | 40.41133 | 111.20599 | 35119 ft | 502 kts | 90° |
| 2026-04-22 10:31 | 40.40999 | 111.29663 | 35118 ft | 499 kts | 90° |
| 2026-04-22 10:32 | 40.40856 | 111.38718 | 35113 ft | 500 kts | 90° |
| 2026-04-22 10:32 | 40.40706 | 111.47803 | 35112 ft | 500 kts | 90° |
| 2026-04-22 10:33 | 40.40548 | 111.56930 | 35119 ft | 503 kts | 90° |
| 2026-04-22 10:33 | 40.40382 | 111.66061 | 35115 ft | 501 kts | 90° |
| 2026-04-22 10:34 | 40.40212 | 111.75099 | 35112 ft | 503 kts | 90° |
| 2026-04-22 10:34 | 40.40037 | 111.83955 | 35117 ft | 505 kts | 90° |
| 2026-04-22 10:35 | 40.39841 | 111.93390 | 35119 ft | 504 kts | 90° |
| 2026-04-22 10:35 | 40.39619 | 112.02619 | 35137 ft | 507 kts | 91° |
| 2026-04-22 10:36 | 40.39305 | 112.11775 | 35146 ft | 507 kts | 92° |
| 2026-04-22 10:36 | 40.38983 | 112.20988 | 35142 ft | 506 kts | 92° |
| 2026-04-22 10:37 | 40.38491 | 112.34810 | 35145 ft | 507 kts | 91° |
| 2026-04-22 10:38 | 40.38388 | 112.44022 | 35133 ft | 507 kts | 87° |
| 2026-04-22 10:38 | 40.38100 | 112.53237 | 35118 ft | 507 kts | 93° |
| 2026-04-22 10:39 | 40.37608 | 112.62423 | 35146 ft | 510 kts | 93° |
| 2026-04-22 10:39 | 40.37075 | 112.71679 | 35132 ft | 509 kts | 94° |
| 2026-04-22 10:40 | 40.36538 | 112.80591 | 35129 ft | 508 kts | 94° |
| 2026-04-22 10:40 | 40.35957 | 112.89954 | 35126 ft | 510 kts | 94° |
| 2026-04-22 10:41 | 40.35371 | 112.99192 | 35124 ft | 510 kts | 94° |
| 2026-04-22 10:41 | 40.34774 | 113.08453 | 35109 ft | 511 kts | 95° |
| 2026-04-22 10:42 | 40.34172 | 113.17732 | 35115 ft | 516 kts | 95° |
| 2026-04-22 10:42 | 40.33555 | 113.27007 | 35098 ft | 510 kts | 95° |
| 2026-04-22 10:43 | 40.32910 | 113.36243 | 35121 ft | 513 kts | 95° |
| 2026-04-22 10:43 | 40.32255 | 113.45526 | 35126 ft | 515 kts | 95° |
| 2026-04-22 10:44 | 40.31587 | 113.54900 | 35134 ft | 516 kts | 95° |
| 2026-04-22 10:44 | 40.30914 | 113.64223 | 35136 ft | 519 kts | 95° |
| 2026-04-22 10:45 | 40.30231 | 113.73589 | 35126 ft | 518 kts | 96° |
| 2026-04-22 10:45 | 40.29556 | 113.82747 | 35105 ft | 520 kts | 96° |
| 2026-04-22 10:46 | 40.28858 | 113.92104 | 35101 ft | 517 kts | 96° |
| 2026-04-22 10:46 | 40.28151 | 114.01495 | 35116 ft | 521 kts | 96° |
| 2026-04-22 10:47 | 40.27452 | 114.10884 | 35125 ft | 518 kts | 94° |
| 2026-04-22 10:47 | 40.27067 | 114.20306 | 35137 ft | 520 kts | 93° |
| 2026-04-22 10:48 | 40.26694 | 114.29662 | 35142 ft | 517 kts | 93° |
| 2026-04-22 10:48 | 40.26300 | 114.39075 | 35137 ft | 522 kts | 93° |
| 2026-04-22 10:49 | 40.25896 | 114.48406 | 35067 ft | 514 kts | 93° |
| 2026-04-22 10:49 | 40.25689 | 114.53082 | 34884 ft | 507 kts | 93° |
| 2026-04-22 10:49 | 40.25485 | 114.57638 | 34332 ft | 507 kts | 93° |
| 2026-04-22 10:49 | 40.25277 | 114.62244 | 33969 ft | 515 kts | 93° |
| 2026-04-22 10:50 | 40.25060 | 114.66972 | 33588 ft | 525 kts | 94° |
| 2026-04-22 10:50 | 40.24841 | 114.71725 | 33179 ft | 524 kts | 94° |
| 2026-04-22 10:50 | 40.24619 | 114.76477 | 32779 ft | 524 kts | 94° |
| 2026-04-22 10:50 | 40.24398 | 114.81175 | 32363 ft | 524 kts | 94° |
| 2026-04-22 10:51 | 40.24171 | 114.85948 | 31957 ft | 526 kts | 94° |
| 2026-04-22 10:51 | 40.23941 | 114.90739 | 31548 ft | 529 kts | 94° |
| 2026-04-22 10:51 | 40.23709 | 114.95519 | 31131 ft | 528 kts | 94° |
| 2026-04-22 10:51 | 40.23477 | 115.00286 | 30683 ft | 525 kts | 94° |
| 2026-04-22 10:52 | 40.23244 | 115.05017 | 30266 ft | 518 kts | 95° |
| 2026-04-22 10:52 | 40.23015 | 115.09634 | 29886 ft | 516 kts | 94° |
| 2026-04-22 10:52 | 40.22780 | 115.14339 | 29491 ft | 516 kts | 94° |
| 2026-04-22 10:52 | 40.22542 | 115.19040 | 29084 ft | 514 kts | 94° |
| 2026-04-22 10:53 | 40.22387 | 115.22082 | 28821 ft | 512 kts | 93° |
| 2026-04-22 10:53 | 40.22063 | 115.28220 | 28270 ft | 506 kts | 96° |
| 2026-04-22 10:53 | 40.21477 | 115.32732 | 27879 ft | 502 kts | 105° |
| 2026-04-22 10:53 | 40.20386 | 115.37028 | 27481 ft | 493 kts | 114° |
| 2026-04-22 10:54 | 40.18839 | 115.40977 | 27072 ft | 483 kts | 124° |
| 2026-04-22 10:54 | 40.16906 | 115.44453 | 26686 ft | 471 kts | 134° |
| 2026-04-22 10:54 | 40.14635 | 115.47417 | 26291 ft | 461 kts | 143° |
| 2026-04-22 10:54 | 40.12064 | 115.49848 | 25884 ft | 456 kts | 153° |
| 2026-04-22 10:55 | 40.09251 | 115.51743 | 25484 ft | 453 kts | 161° |
| 2026-04-22 10:55 | 40.07315 | 115.52821 | 25217 ft | 449 kts | 163° |
| 2026-04-22 10:55 | 40.03481 | 115.54736 | 24668 ft | 439 kts | 165° |
| 2026-04-22 10:55 | 40.00620 | 115.56041 | 24264 ft | 431 kts | 166° |
| 2026-04-22 10:56 | 39.97803 | 115.57230 | 23857 ft | 425 kts | 167° |
| 2026-04-22 10:56 | 39.94986 | 115.58345 | 23451 ft | 419 kts | 168° |
| 2026-04-22 10:56 | 39.92193 | 115.59397 | 23044 ft | 417 kts | 168° |
| 2026-04-22 10:56 | 39.89412 | 115.60401 | 22652 ft | 418 kts | 169° |
| 2026-04-22 10:57 | 39.86621 | 115.61382 | 22236 ft | 415 kts | 169° |
| 2026-04-22 10:57 | 39.84251 | 115.62197 | 21880 ft | 411 kts | 169° |
| 2026-04-22 10:57 | 39.81516 | 115.63126 | 21466 ft | 406 kts | 169° |
| 2026-04-22 10:57 | 39.78999 | 115.63971 | 21079 ft | 403 kts | 169° |
| 2026-04-22 10:58 | 39.76288 | 115.64873 | 20577 ft | 400 kts | 169° |
| 2026-04-22 10:58 | 39.73930 | 115.65652 | 20119 ft | 398 kts | 169° |
| 2026-04-22 10:58 | 39.71347 | 115.66500 | 19618 ft | 396 kts | 169° |
| 2026-04-22 10:58 | 39.68793 | 115.67337 | 19121 ft | 394 kts | 169° |
| 2026-04-22 10:59 | 39.66139 | 115.68204 | 18600 ft | 392 kts | 169° |
| 2026-04-22 10:59 | 39.63473 | 115.69072 | 18075 ft | 390 kts | 169° |
| 2026-04-22 10:59 | 39.60849 | 115.69925 | 17559 ft | 388 kts | 169° |
| 2026-04-22 10:59 | 39.58224 | 115.70777 | 17047 ft | 386 kts | 169° |
| 2026-04-22 11:00 | 39.55699 | 115.71823 | 16533 ft | 386 kts | 159° |
| 2026-04-22 11:00 | 39.53336 | 115.73483 | 16004 ft | 386 kts | 147° |
| 2026-04-22 11:00 | 39.51264 | 115.75696 | 15487 ft | 384 kts | 135° |
| 2026-04-22 11:00 | 39.49600 | 115.78323 | 14999 ft | 382 kts | 122° |
| 2026-04-22 11:01 | 39.48362 | 115.81327 | 14470 ft | 379 kts | 111° |
| 2026-04-22 11:01 | 39.47584 | 115.84611 | 13715 ft | 384 kts | 99° |
| 2026-04-22 11:01 | 39.47330 | 115.88024 | 13032 ft | 382 kts | 87° |
| 2026-04-22 11:01 | 39.47542 | 115.91425 | 12463 ft | 378 kts | 81° |
| 2026-04-22 11:02 | 39.47874 | 115.94767 | 11916 ft | 375 kts | 78° |
| 2026-04-22 11:02 | 39.48544 | 115.97982 | 11310 ft | 370 kts | 65° |
| 2026-04-22 11:02 | 39.49760 | 116.00841 | 10849 ft | 360 kts | 52° |
| 2026-04-22 11:02 | 39.51463 | 116.03143 | 10562 ft | 345 kts | 38° |
| 2026-04-22 11:03 | 39.53266 | 116.05026 | 10538 ft | 328 kts | 36° |
| 2026-04-22 11:03 | 39.55039 | 116.06786 | 10434 ft | 313 kts | 30° |
| 2026-04-22 11:03 | 39.56979 | 116.07970 | 10257 ft | 300 kts | 18° |
| 2026-04-22 11:03 | 39.58973 | 116.08601 | 10127 ft | 288 kts | 5° |
| 2026-04-22 11:04 | 39.60912 | 116.08701 | 10006 ft | 276 kts | 357° |
| 2026-04-22 11:04 | 39.62828 | 116.08543 | 9702 ft | 273 kts | 354° |
| 2026-04-22 11:04 | 39.64706 | 116.08289 | 9350 ft | 273 kts | 353° |
| 2026-04-22 11:04 | 39.66576 | 116.08008 | 9074 ft | 269 kts | 352° |
| 2026-04-22 11:05 | 39.68446 | 116.07722 | 8779 ft | 267 kts | 352° |
| 2026-04-22 11:05 | 39.70281 | 116.07439 | 8455 ft | 266 kts | 352° |
| 2026-04-22 11:05 | 39.72124 | 116.07159 | 8137 ft | 266 kts | 353° |
| 2026-04-22 11:05 | 39.73955 | 116.07355 | 7796 ft | 266 kts | 18° |
| 2026-04-22 11:06 | 39.75498 | 116.08567 | 7479 ft | 265 kts | 45° |
| 2026-04-22 11:06 | 39.76475 | 116.10583 | 7155 ft | 263 kts | 72° |
| 2026-04-22 11:06 | 39.76878 | 116.12905 | 6863 ft | 262 kts | 82° |
| 2026-04-22 11:06 | 39.77132 | 116.15231 | 6557 ft | 262 kts | 83° |
| 2026-04-22 11:07 | 39.77359 | 116.17599 | 6239 ft | 265 kts | 84° |
| 2026-04-22 11:07 | 39.77583 | 116.19964 | 5922 ft | 267 kts | 84° |
| 2026-04-22 11:07 | 39.77810 | 116.22353 | 5709 ft | 262 kts | 84° |
| 2026-04-22 11:07 | 39.78021 | 116.24661 | 5633 ft | 252 kts | 85° |
| 2026-04-22 11:08 | 39.78217 | 116.26870 | 5561 ft | 242 kts | 85° |
| 2026-04-22 11:08 | 39.78404 | 116.28974 | 5483 ft | 229 kts | 85° |
| 2026-04-22 11:08 | 39.78565 | 116.30984 | 5394 ft | 216 kts | 92° |
| 2026-04-22 11:08 | 39.78182 | 116.32775 | 5286 ft | 200 kts | 126° |
| 2026-04-22 11:09 | 39.77297 | 116.34106 | 5177 ft | 194 kts | 147° |
| 2026-04-22 11:09 | 39.76058 | 116.34785 | 4879 ft | 192 kts | 167° |
| 2026-04-22 11:09 | 39.74755 | 116.35088 | 4591 ft | 193 kts | 172° |
| 2026-04-22 11:09 | 39.73426 | 116.35287 | 4326 ft | 192 kts | 174° |
| 2026-04-22 11:10 | 39.72091 | 116.35474 | 4063 ft | 189 kts | 173° |
| 2026-04-22 11:10 | 39.70810 | 116.35675 | 3826 ft | 185 kts | 173° |
| 2026-04-22 11:10 | 39.69529 | 116.35886 | 3588 ft | 181 kts | 173° |
| 2026-04-22 11:10 | 39.68292 | 116.36092 | 3357 ft | 179 kts | 173° |
| 2026-04-22 11:11 | 39.67049 | 116.36294 | 3128 ft | 179 kts | 173° |
| 2026-04-22 11:11 | 39.65825 | 116.36490 | 2894 ft | 177 kts | 173° |
| 2026-04-22 11:11 | 39.64601 | 116.36684 | 2664 ft | 178 kts | 173° |
| 2026-04-22 11:11 | 39.63370 | 116.36880 | 2420 ft | 177 kts | 173° |
| 2026-04-22 11:12 | 39.62186 | 116.37067 | 2186 ft | 168 kts | 172° |
| 2026-04-22 11:12 | 39.61058 | 116.37248 | 1966 ft | 159 kts | 172° |
| 2026-04-22 11:12 | 39.59988 | 116.37420 | 1758 ft | 151 kts | 172° |
| 2026-04-22 11:12 | 39.58973 | 116.37582 | 1570 ft | 145 kts | 172° |
| 2026-04-22 11:13 | 39.57950 | 116.37743 | 1367 ft | 146 kts | 172° |
| 2026-04-22 11:13 | 39.56952 | 116.37901 | 1166 ft | 145 kts | 172° |
| 2026-04-22 11:13 | 39.55959 | 116.38058 | 966 ft | 142 kts | 172° |
| 2026-04-22 11:13 | 39.54973 | 116.38215 | 771 ft | 141 kts | 173° |
| 2026-04-22 11:14 | 39.54001 | 116.38369 | 580 ft | 142 kts | 173° |
| 2026-04-22 11:14 | 39.53021 | 116.38525 | 389 ft | 142 kts | 173° |
| 2026-04-22 11:14 | 39.52028 | 116.38683 | 202 ft | 142 kts | 173° |
| 2026-04-22 11:14 | 39.51064 | 116.38835 | 97 ft | 128 kts | 172° |
| 2026-04-22 11:15 | 39.50321 | 116.38952 | 96 ft | 86 kts | 173° |
| 2026-04-22 11:15 | 39.49867 | 116.39028 | 96 ft | 39 kts | 172° |
| 2026-04-22 11:15 | 39.49680 | 116.39114 | 96 ft | 19 kts | 149° |
| 2026-04-22 11:15 | 39.49601 | 116.39178 | 96 ft | 11 kts | 146° |
| 2026-04-22 11:16 | 39.49536 | 116.39234 | 96 ft | 10 kts | 146° |
| 2026-04-22 11:16 | 39.49475 | 116.39287 | 96 ft | 10 kts | 148° |
| 2026-04-22 11:16 | 39.49393 | 116.39320 | 96 ft | 13 kts | 171° |
| 2026-04-22 11:16 | 39.49293 | 116.39361 | 96 ft | 16 kts | 144° |
| 2026-04-22 11:17 | 39.49188 | 116.39455 | 96 ft | 19 kts | 146° |
| 2026-04-22 11:17 | 39.49153 | 116.39596 | 96 ft | 17 kts | 81° |
| 2026-04-22 11:17 | 39.49169 | 116.39763 | 96 ft | 19 kts | 83° |
| 2026-04-22 11:17 | 39.49186 | 116.39948 | 96 ft | 21 kts | 83° |
| 2026-04-22 11:18 | 39.49205 | 116.40144 | 96 ft | 21 kts | 82° |
| 2026-04-22 11:18 | 39.49218 | 116.40278 | 96 ft | 10 kts | 83° |
| 2026-04-22 11:18 | 39.49252 | 116.40344 | 96 ft | 8 kts | 17° |
| 2026-04-22 11:18 | 39.49328 | 116.40340 | 96 ft | 14 kts | 354° |
| 2026-04-22 11:19 | 39.49460 | 116.40321 | 96 ft | 23 kts | 353° |
| 2026-04-22 11:19 | 39.49644 | 116.40288 | 96 ft | 30 kts | 353° |
| 2026-04-22 11:19 | 39.49853 | 116.40255 | 96 ft | 29 kts | 353° |
| 2026-04-22 11:19 | 39.50046 | 116.40224 | 96 ft | 16 kts | 355° |
| 2026-04-22 11:20 | 39.50113 | 116.40308 | 96 ft | 14 kts | 74° |
| 2026-04-22 11:20 | 39.50131 | 116.40440 | 96 ft | 16 kts | 83° |
| 2026-04-22 11:20 | 39.50143 | 116.40586 | 96 ft | 15 kts | 83° |
| 2026-04-22 11:20 | 39.50154 | 116.40723 | 96 ft | 15 kts | 84° |
| 2026-04-22 11:21 | 39.50209 | 116.40809 | 96 ft | 13 kts | 4° |
| 2026-04-22 11:21 | 39.50302 | 116.40801 | 96 ft | 13 kts | 353° |
| 2026-04-22 11:21 | 39.50393 | 116.40786 | 96 ft | 12 kts | 353° |
| 2026-04-22 11:21 | 39.50479 | 116.40781 | 96 ft | 12 kts | 13° |
| 2026-04-22 11:22 | 39.50555 | 116.40822 | 96 ft | 11 kts | 24° |
| 2026-04-22 11:22 | 39.50629 | 116.40865 | 96 ft | 11 kts | 23° |
| 2026-04-22 11:22 | 39.50694 | 116.40908 | 96 ft | 8 kts | 43° |
| 2026-04-22 11:22 | 39.50727 | 116.40963 | 96 ft | 4 kts | 57° |
| 2026-04-22 11:23 | 39.50738 | 116.40986 | 96 ft | 2 kts | 58° |
| 2026-04-22 11:23 | 39.50740 | 116.40990 | 96 ft | 0 kts | 58° |